sensor_id;sensor_type;location;lat;lon;timestamp;P1;durP1;ratioP1;P2;durP2;ratioP2
14377;SDS011;7272;53.668;9.578;2023-06-04T00:00:58;2.93;;;2.00;;
14377;SDS011;7272;53.668;9.578;2023-06-04T00:04:00;1.77;;;1.60;;
14377;SDS011;7272;53.668;9.578;2023-06-04T00:07:01;1.53;;;1.43;;
14377;SDS011;7272;53.668;9.578;2023-06-04T00:10:03;3.47;;;2.20;;
14377;SDS011;7272;53.668;9.578;2023-06-04T00:13:05;2.10;;;1.90;;
14377;SDS011;7272;53.668;9.578;2023-06-04T00:16:06;3.75;;;2.30;;
14377;SDS011;7272;53.668;9.578;2023-06-04T00:19:08;2.90;;;2.35;;
14377;SDS011;7272;53.668;9.578;2023-06-04T00:22:09;3.43;;;2.20;;
14377;SDS011;7272;53.668;9.578;2023-06-04T00:25:10;2.83;;;1.73;;
14377;SDS011;7272;53.668;9.578;2023-06-04T00:28:11;3.13;;;2.00;;
14377;SDS011;7272;53.668;9.578;2023-06-04T00:31:13;4.87;;;2.40;;
14377;SDS011;7272;53.668;9.578;2023-06-04T00:34:16;5.80;;;2.27;;
14377;SDS011;7272;53.668;9.578;2023-06-04T00:37:17;6.13;;;2.47;;
14377;SDS011;7272;53.668;9.578;2023-06-04T00:40:18;3.37;;;2.20;;
14377;SDS011;7272;53.668;9.578;2023-06-04T00:43:20;4.10;;;2.50;;
14377;SDS011;7272;53.668;9.578;2023-06-04T00:46:22;3.08;;;2.20;;
14377;SDS011;7272;53.668;9.578;2023-06-04T00:49:23;2.50;;;2.00;;
14377;SDS011;7272;53.668;9.578;2023-06-04T00:52:25;2.33;;;1.70;;
14377;SDS011;7272;53.668;9.578;2023-06-04T00:55:26;2.77;;;1.90;;
14377;SDS011;7272;53.668;9.578;2023-06-04T00:58:28;3.37;;;1.70;;
14377;SDS011;7272;53.668;9.578;2023-06-04T01:01:31;4.10;;;2.10;;
14377;SDS011;7272;53.668;9.578;2023-06-04T01:04:42;2.20;;;1.80;;
14377;SDS011;7272;53.668;9.578;2023-06-04T01:07:48;4.03;;;2.42;;
14377;SDS011;7272;53.668;9.578;2023-06-04T01:10:50;3.80;;;2.67;;
14377;SDS011;7272;53.668;9.578;2023-06-04T01:13:52;2.83;;;1.73;;
14377;SDS011;7272;53.668;9.578;2023-06-04T01:16:56;2.10;;;1.70;;
14377;SDS011;7272;53.668;9.578;2023-06-04T01:20:12;2.47;;;1.70;;
14377;SDS011;7272;53.668;9.578;2023-06-04T01:23:23;3.37;;;1.97;;
14377;SDS011;7272;53.668;9.578;2023-06-04T01:26:34;2.90;;;1.70;;
14377;SDS011;7272;53.668;9.578;2023-06-04T01:29:36;2.43;;;1.87;;
14377;SDS011;7272;53.668;9.578;2023-06-04T01:32:38;2.77;;;2.30;;
14377;SDS011;7272;53.668;9.578;2023-06-04T01:35:39;3.80;;;2.72;;
14377;SDS011;7272;53.668;9.578;2023-06-04T01:38:41;3.87;;;1.90;;
14377;SDS011;7272;53.668;9.578;2023-06-04T01:41:42;1.93;;;1.80;;
14377;SDS011;7272;53.668;9.578;2023-06-04T01:44:44;4.23;;;2.10;;
14377;SDS011;7272;53.668;9.578;2023-06-04T01:47:46;2.17;;;1.80;;
14377;SDS011;7272;53.668;9.578;2023-06-04T01:50:47;2.83;;;2.10;;
14377;SDS011;7272;53.668;9.578;2023-06-04T01:53:48;2.73;;;2.00;;
14377;SDS011;7272;53.668;9.578;2023-06-04T01:56:49;3.00;;;2.37;;
14377;SDS011;7272;53.668;9.578;2023-06-04T01:59:50;2.47;;;2.22;;
14377;SDS011;7272;53.668;9.578;2023-06-04T02:02:52;1.97;;;1.87;;
14377;SDS011;7272;53.668;9.578;2023-06-04T02:05:55;3.20;;;2.00;;
14377;SDS011;7272;53.668;9.578;2023-06-04T02:08:57;2.90;;;2.13;;
14377;SDS011;7272;53.668;9.578;2023-06-04T02:11:58;2.83;;;1.93;;
14377;SDS011;7272;53.668;9.578;2023-06-04T02:14:59;2.37;;;1.70;;
14377;SDS011;7272;53.668;9.578;2023-06-04T02:18:11;2.40;;;1.73;;
14377;SDS011;7272;53.668;9.578;2023-06-04T02:21:16;2.17;;;1.97;;
14377;SDS011;7272;53.668;9.578;2023-06-04T02:24:17;2.95;;;2.58;;
14377;SDS011;7272;53.668;9.578;2023-06-04T02:27:18;3.13;;;2.70;;
14377;SDS011;7272;53.668;9.578;2023-06-04T02:30:20;2.93;;;2.30;;
14377;SDS011;7272;53.668;9.578;2023-06-04T02:33:22;2.33;;;2.13;;
14377;SDS011;7272;53.668;9.578;2023-06-04T02:36:23;2.00;;;1.90;;
14377;SDS011;7272;53.668;9.578;2023-06-04T02:39:24;2.27;;;2.10;;
14377;SDS011;7272;53.668;9.578;2023-06-04T02:42:26;2.63;;;2.07;;
14377;SDS011;7272;53.668;9.578;2023-06-04T02:45:27;2.40;;;2.20;;
14377;SDS011;7272;53.668;9.578;2023-06-04T02:48:29;1.93;;;1.73;;
14377;SDS011;7272;53.668;9.578;2023-06-04T02:51:30;2.60;;;2.40;;
14377;SDS011;7272;53.668;9.578;2023-06-04T02:54:32;2.90;;;2.70;;
14377;SDS011;7272;53.668;9.578;2023-06-04T02:57:34;3.40;;;2.80;;
14377;SDS011;7272;53.668;9.578;2023-06-04T03:00:35;3.00;;;2.33;;
14377;SDS011;7272;53.668;9.578;2023-06-04T03:03:37;3.03;;;2.77;;
14377;SDS011;7272;53.668;9.578;2023-06-04T03:06:38;3.77;;;2.30;;
14377;SDS011;7272;53.668;9.578;2023-06-04T03:09:39;3.63;;;2.33;;
14377;SDS011;7272;53.668;9.578;2023-06-04T03:12:41;2.07;;;1.83;;
14377;SDS011;7272;53.668;9.578;2023-06-04T03:15:42;2.27;;;2.10;;
14377;SDS011;7272;53.668;9.578;2023-06-04T03:18:45;2.47;;;2.00;;
14377;SDS011;7272;53.668;9.578;2023-06-04T03:21:46;2.83;;;1.87;;
14377;SDS011;7272;53.668;9.578;2023-06-04T03:24:50;3.38;;;2.95;;
14377;SDS011;7272;53.668;9.578;2023-06-04T03:27:53;2.57;;;2.37;;
14377;SDS011;7272;53.668;9.578;2023-06-04T03:30:54;2.00;;;1.90;;
14377;SDS011;7272;53.668;9.578;2023-06-04T03:33:58;3.07;;;2.70;;
14377;SDS011;7272;53.668;9.578;2023-06-04T03:36:59;4.43;;;3.60;;
14377;SDS011;7272;53.668;9.578;2023-06-04T03:40:02;3.83;;;2.80;;
14377;SDS011;7272;53.668;9.578;2023-06-04T03:43:06;2.67;;;2.33;;
14377;SDS011;7272;53.668;9.578;2023-06-04T03:46:07;4.00;;;3.00;;
14377;SDS011;7272;53.668;9.578;2023-06-04T03:49:11;4.43;;;2.90;;
14377;SDS011;7272;53.668;9.578;2023-06-04T03:52:14;3.53;;;3.10;;
14377;SDS011;7272;53.668;9.578;2023-06-04T03:55:15;3.33;;;2.87;;
14377;SDS011;7272;53.668;9.578;2023-06-04T03:58:17;3.80;;;3.50;;
14377;SDS011;7272;53.668;9.578;2023-06-04T04:01:23;3.90;;;2.67;;
14377;SDS011;7272;53.668;9.578;2023-06-04T04:04:25;3.13;;;2.80;;
14377;SDS011;7272;53.668;9.578;2023-06-04T04:07:26;4.83;;;3.57;;
14377;SDS011;7272;53.668;9.578;2023-06-04T04:10:27;4.23;;;3.40;;
14377;SDS011;7272;53.668;9.578;2023-06-04T04:13:29;4.40;;;3.00;;
14377;SDS011;7272;53.668;9.578;2023-06-04T04:16:30;3.70;;;3.37;;
14377;SDS011;7272;53.668;9.578;2023-06-04T04:19:32;3.63;;;2.77;;
14377;SDS011;7272;53.668;9.578;2023-06-04T04:22:33;5.53;;;3.40;;
14377;SDS011;7272;53.668;9.578;2023-06-04T04:25:35;5.60;;;4.13;;
14377;SDS011;7272;53.668;9.578;2023-06-04T04:28:38;4.83;;;3.90;;
14377;SDS011;7272;53.668;9.578;2023-06-04T04:31:40;4.53;;;3.67;;
14377;SDS011;7272;53.668;9.578;2023-06-04T04:34:50;5.00;;;4.03;;
14377;SDS011;7272;53.668;9.578;2023-06-04T04:37:54;4.77;;;3.80;;
14377;SDS011;7272;53.668;9.578;2023-06-04T04:40:58;5.17;;;4.43;;
14377;SDS011;7272;53.668;9.578;2023-06-04T04:44:02;6.37;;;4.63;;
14377;SDS011;7272;53.668;9.578;2023-06-04T04:47:03;5.20;;;4.70;;
14377;SDS011;7272;53.668;9.578;2023-06-04T04:50:06;6.33;;;4.70;;
14377;SDS011;7272;53.668;9.578;2023-06-04T04:53:08;5.07;;;4.63;;
14377;SDS011;7272;53.668;9.578;2023-06-04T04:56:10;9.93;;;5.93;;
14377;SDS011;7272;53.668;9.578;2023-06-04T04:59:16;10.10;;;6.45;;
14377;SDS011;7272;53.668;9.578;2023-06-04T05:02:17;7.88;;;5.72;;
14377;SDS011;7272;53.668;9.578;2023-06-04T05:05:20;6.77;;;4.87;;
14377;SDS011;7272;53.668;9.578;2023-06-04T05:08:23;6.87;;;4.80;;
14377;SDS011;7272;53.668;9.578;2023-06-04T05:11:24;10.33;;;5.33;;
14377;SDS011;7272;53.668;9.578;2023-06-04T05:14:26;6.27;;;4.10;;
14377;SDS011;7272;53.668;9.578;2023-06-04T05:17:27;7.30;;;4.80;;
14377;SDS011;7272;53.668;9.578;2023-06-04T05:20:32;7.23;;;4.90;;
14377;SDS011;7272;53.668;9.578;2023-06-04T05:23:35;5.90;;;4.43;;
14377;SDS011;7272;53.668;9.578;2023-06-04T05:26:37;6.37;;;4.00;;
14377;SDS011;7272;53.668;9.578;2023-06-04T05:29:45;8.07;;;5.07;;
14377;SDS011;7272;53.668;9.578;2023-06-04T05:32:47;5.63;;;4.20;;
14377;SDS011;7272;53.668;9.578;2023-06-04T05:35:53;5.37;;;3.97;;
14377;SDS011;7272;53.668;9.578;2023-06-04T05:38:57;7.83;;;4.33;;
14377;SDS011;7272;53.668;9.578;2023-06-04T05:42:05;7.57;;;3.93;;
14377;SDS011;7272;53.668;9.578;2023-06-04T05:45:07;6.53;;;4.23;;
14377;SDS011;7272;53.668;9.578;2023-06-04T05:48:10;7.20;;;4.00;;
14377;SDS011;7272;53.668;9.578;2023-06-04T05:51:12;8.23;;;4.50;;
14377;SDS011;7272;53.668;9.578;2023-06-04T05:54:14;6.27;;;4.33;;
14377;SDS011;7272;53.668;9.578;2023-06-04T05:57:17;7.00;;;4.00;;
14377;SDS011;7272;53.668;9.578;2023-06-04T06:00:19;5.07;;;3.80;;
14377;SDS011;7272;53.668;9.578;2023-06-04T06:03:22;5.23;;;3.50;;
14377;SDS011;7272;53.668;9.578;2023-06-04T06:06:25;8.30;;;4.60;;
14377;SDS011;7272;53.668;9.578;2023-06-04T06:09:26;5.65;;;4.38;;
14377;SDS011;7272;53.668;9.578;2023-06-04T06:12:27;6.27;;;3.87;;
14377;SDS011;7272;53.668;9.578;2023-06-04T06:15:29;5.23;;;3.60;;
14377;SDS011;7272;53.668;9.578;2023-06-04T06:18:31;6.93;;;3.80;;
14377;SDS011;7272;53.668;9.578;2023-06-04T06:21:33;6.27;;;3.83;;
14377;SDS011;7272;53.668;9.578;2023-06-04T06:24:35;6.13;;;2.90;;
14377;SDS011;7272;53.668;9.578;2023-06-04T06:27:36;6.20;;;3.00;;
14377;SDS011;7272;53.668;9.578;2023-06-04T06:30:37;4.77;;;2.93;;
14377;SDS011;7272;53.668;9.578;2023-06-04T06:33:38;4.57;;;2.73;;
14377;SDS011;7272;53.668;9.578;2023-06-04T06:36:41;4.47;;;2.63;;
14377;SDS011;7272;53.668;9.578;2023-06-04T06:39:44;5.03;;;2.27;;
14377;SDS011;7272;53.668;9.578;2023-06-04T06:42:47;4.93;;;3.15;;
14377;SDS011;7272;53.668;9.578;2023-06-04T06:45:49;2.93;;;2.50;;
14377;SDS011;7272;53.668;9.578;2023-06-04T06:48:51;4.80;;;2.90;;
14377;SDS011;7272;53.668;9.578;2023-06-04T06:51:53;3.37;;;2.13;;
14377;SDS011;7272;53.668;9.578;2023-06-04T06:54:54;5.40;;;2.10;;
14377;SDS011;7272;53.668;9.578;2023-06-04T06:57:55;3.87;;;1.87;;
14377;SDS011;7272;53.668;9.578;2023-06-04T07:00:56;4.70;;;2.40;;
14377;SDS011;7272;53.668;9.578;2023-06-04T07:03:59;3.90;;;2.20;;
14377;SDS011;7272;53.668;9.578;2023-06-04T07:07:00;4.03;;;2.00;;
14377;SDS011;7272;53.668;9.578;2023-06-04T07:10:02;3.65;;;2.20;;
14377;SDS011;7272;53.668;9.578;2023-06-04T07:13:04;4.45;;;2.30;;
14377;SDS011;7272;53.668;9.578;2023-06-04T07:16:05;4.90;;;2.17;;
14377;SDS011;7272;53.668;9.578;2023-06-04T07:19:06;3.27;;;2.00;;
14377;SDS011;7272;53.668;9.578;2023-06-04T07:22:08;3.07;;;2.00;;
14377;SDS011;7272;53.668;9.578;2023-06-04T07:25:10;2.97;;;1.87;;
14377;SDS011;7272;53.668;9.578;2023-06-04T07:28:12;3.33;;;2.10;;
14377;SDS011;7272;53.668;9.578;2023-06-04T07:31:14;4.40;;;2.30;;
14377;SDS011;7272;53.668;9.578;2023-06-04T07:34:16;3.27;;;1.80;;
14377;SDS011;7272;53.668;9.578;2023-06-04T07:37:18;4.03;;;2.20;;
14377;SDS011;7272;53.668;9.578;2023-06-04T07:40:19;3.00;;;2.03;;
14377;SDS011;7272;53.668;9.578;2023-06-04T07:43:20;3.50;;;2.40;;
14377;SDS011;7272;53.668;9.578;2023-06-04T07:46:21;3.88;;;2.38;;
14377;SDS011;7272;53.668;9.578;2023-06-04T07:49:23;2.53;;;2.17;;
14377;SDS011;7272;53.668;9.578;2023-06-04T07:52:25;3.63;;;2.20;;
14377;SDS011;7272;53.668;9.578;2023-06-04T07:55:27;3.40;;;1.83;;
14377;SDS011;7272;53.668;9.578;2023-06-04T07:58:28;2.17;;;1.70;;
14377;SDS011;7272;53.668;9.578;2023-06-04T08:01:29;5.77;;;2.60;;
14377;SDS011;7272;53.668;9.578;2023-06-04T08:04:30;3.80;;;2.10;;
14377;SDS011;7272;53.668;9.578;2023-06-04T08:07:32;5.10;;;2.27;;
14377;SDS011;7272;53.668;9.578;2023-06-04T08:10:33;4.57;;;2.03;;
14377;SDS011;7272;53.668;9.578;2023-06-04T08:13:35;4.75;;;2.70;;
14377;SDS011;7272;53.668;9.578;2023-06-04T08:16:36;4.38;;;2.67;;
14377;SDS011;7272;53.668;9.578;2023-06-04T08:19:42;3.47;;;2.20;;
14377;SDS011;7272;53.668;9.578;2023-06-04T08:22:51;4.77;;;2.70;;
14377;SDS011;7272;53.668;9.578;2023-06-04T08:26:00;3.03;;;2.37;;
14377;SDS011;7272;53.668;9.578;2023-06-04T08:29:21;4.83;;;2.63;;
14377;SDS011;7272;53.668;9.578;2023-06-04T08:32:24;4.43;;;2.23;;
14377;SDS011;7272;53.668;9.578;2023-06-04T08:35:26;3.07;;;1.80;;
14377;SDS011;7272;53.668;9.578;2023-06-04T08:38:28;3.93;;;2.00;;
14377;SDS011;7272;53.668;9.578;2023-06-04T08:41:29;3.63;;;2.10;;
14377;SDS011;7272;53.668;9.578;2023-06-04T08:44:35;3.70;;;2.37;;
14377;SDS011;7272;53.668;9.578;2023-06-04T08:47:36;2.63;;;2.00;;
14377;SDS011;7272;53.668;9.578;2023-06-04T08:50:38;3.27;;;1.90;;
14377;SDS011;7272;53.668;9.578;2023-06-04T08:53:43;2.43;;;1.57;;
14377;SDS011;7272;53.668;9.578;2023-06-04T08:56:47;3.17;;;2.20;;
14377;SDS011;7272;53.668;9.578;2023-06-04T08:59:52;2.57;;;1.70;;
14377;SDS011;7272;53.668;9.578;2023-06-04T09:02:53;2.20;;;2.00;;
14377;SDS011;7272;53.668;9.578;2023-06-04T09:05:55;2.77;;;1.90;;
14377;SDS011;7272;53.668;9.578;2023-06-04T09:08:58;3.42;;;1.98;;
14377;SDS011;7272;53.668;9.578;2023-06-04T09:12:04;2.15;;;1.85;;
14377;SDS011;7272;53.668;9.578;2023-06-04T09:15:09;4.03;;;1.90;;
14377;SDS011;7272;53.668;9.578;2023-06-04T09:18:11;3.57;;;2.10;;
14377;SDS011;7272;53.668;9.578;2023-06-04T09:21:12;2.30;;;1.80;;
14377;SDS011;7272;53.668;9.578;2023-06-04T09:24:14;2.40;;;2.20;;
14377;SDS011;7272;53.668;9.578;2023-06-04T09:27:16;1.77;;;1.57;;
14377;SDS011;7272;53.668;9.578;2023-06-04T09:30:18;3.40;;;1.90;;
14377;SDS011;7272;53.668;9.578;2023-06-04T09:33:19;3.50;;;2.03;;
14377;SDS011;7272;53.668;9.578;2023-06-04T09:36:21;2.63;;;2.00;;
14377;SDS011;7272;53.668;9.578;2023-06-04T09:39:22;4.73;;;2.17;;
14377;SDS011;7272;53.668;9.578;2023-06-04T09:42:24;4.60;;;1.87;;
14377;SDS011;7272;53.668;9.578;2023-06-04T09:45:28;4.63;;;2.10;;
14377;SDS011;7272;53.668;9.578;2023-06-04T09:48:31;2.00;;;1.80;;
14377;SDS011;7272;53.668;9.578;2023-06-04T09:51:32;2.43;;;1.97;;
14377;SDS011;7272;53.668;9.578;2023-06-04T09:54:37;3.83;;;1.90;;
14377;SDS011;7272;53.668;9.578;2023-06-04T09:57:39;3.20;;;2.00;;
14377;SDS011;7272;53.668;9.578;2023-06-04T10:00:41;2.13;;;1.73;;
14377;SDS011;7272;53.668;9.578;2023-06-04T10:03:46;2.03;;;1.73;;
14377;SDS011;7272;53.668;9.578;2023-06-04T10:06:48;2.13;;;1.80;;
14377;SDS011;7272;53.668;9.578;2023-06-04T10:09:50;2.33;;;1.73;;
14377;SDS011;7272;53.668;9.578;2023-06-04T10:12:53;3.77;;;2.07;;
14377;SDS011;7272;53.668;9.578;2023-06-04T10:16:00;2.45;;;1.83;;
14377;SDS011;7272;53.668;9.578;2023-06-04T10:19:03;2.58;;;1.98;;
14377;SDS011;7272;53.668;9.578;2023-06-04T10:22:07;1.50;;;1.40;;
14377;SDS011;7272;53.668;9.578;2023-06-04T10:25:10;2.67;;;1.42;;
14377;SDS011;7272;53.668;9.578;2023-06-04T10:28:12;1.80;;;1.30;;
14377;SDS011;7272;53.668;9.578;2023-06-04T10:31:15;1.87;;;1.57;;
14377;SDS011;7272;53.668;9.578;2023-06-04T10:34:16;1.83;;;1.30;;
14377;SDS011;7272;53.668;9.578;2023-06-04T10:37:19;2.60;;;1.07;;
14377;SDS011;7272;53.668;9.578;2023-06-04T10:40:22;1.20;;;1.10;;
14377;SDS011;7272;53.668;9.578;2023-06-04T10:43:32;0.97;;;0.97;;
14377;SDS011;7272;53.668;9.578;2023-06-04T10:46:37;1.30;;;1.20;;
14377;SDS011;7272;53.668;9.578;2023-06-04T10:49:40;1.40;;;1.30;;
14377;SDS011;7272;53.668;9.578;2023-06-04T10:52:50;1.63;;;1.53;;
14377;SDS011;7272;53.668;9.578;2023-06-04T10:55:53;2.45;;;1.80;;
14377;SDS011;7272;53.668;9.578;2023-06-04T10:58:54;2.88;;;1.73;;
14377;SDS011;7272;53.668;9.578;2023-06-04T11:02:03;1.77;;;1.40;;
14377;SDS011;7272;53.668;9.578;2023-06-04T11:05:06;2.10;;;1.60;;
14377;SDS011;7272;53.668;9.578;2023-06-04T11:08:10;2.33;;;1.70;;
14377;SDS011;7272;53.668;9.578;2023-06-04T11:11:14;2.47;;;1.60;;
14377;SDS011;7272;53.668;9.578;2023-06-04T11:14:16;1.80;;;1.60;;
14377;SDS011;7272;53.668;9.578;2023-06-04T11:17:18;1.50;;;1.40;;
14377;SDS011;7272;53.668;9.578;2023-06-04T11:20:19;1.77;;;1.40;;
14377;SDS011;7272;53.668;9.578;2023-06-04T11:23:21;1.70;;;1.60;;
14377;SDS011;7272;53.668;9.578;2023-06-04T11:26:29;1.87;;;1.40;;
14377;SDS011;7272;53.668;9.578;2023-06-04T11:29:31;1.27;;;0.90;;
14377;SDS011;7272;53.668;9.578;2023-06-04T11:32:33;1.13;;;1.03;;
14377;SDS011;7272;53.668;9.578;2023-06-04T11:35:39;1.80;;;1.52;;
14377;SDS011;7272;53.668;9.578;2023-06-04T11:38:41;1.52;;;1.40;;
14377;SDS011;7272;53.668;9.578;2023-06-04T11:41:43;0.90;;;0.90;;
14377;SDS011;7272;53.668;9.578;2023-06-04T11:44:45;1.20;;;1.10;;
14377;SDS011;7272;53.668;9.578;2023-06-04T11:47:49;2.70;;;1.53;;
14377;SDS011;7272;53.668;9.578;2023-06-04T11:50:53;1.40;;;1.30;;
14377;SDS011;7272;53.668;9.578;2023-06-04T11:53:54;1.85;;;1.50;;
14377;SDS011;7272;53.668;9.578;2023-06-04T11:56:56;2.08;;;1.30;;
14377;SDS011;7272;53.668;9.578;2023-06-04T11:59:57;2.27;;;1.30;;
14377;SDS011;7272;53.668;9.578;2023-06-04T12:02:59;2.15;;;1.60;;
14377;SDS011;7272;53.668;9.578;2023-06-04T12:06:08;2.17;;;1.20;;
14377;SDS011;7272;53.668;9.578;2023-06-04T12:09:19;2.53;;;1.60;;
14377;SDS011;7272;53.668;9.578;2023-06-04T12:12:21;2.10;;;1.67;;
14377;SDS011;7272;53.668;9.578;2023-06-04T12:15:24;1.55;;;1.30;;
14377;SDS011;7272;53.668;9.578;2023-06-04T12:18:25;2.07;;;1.33;;
14377;SDS011;7272;53.668;9.578;2023-06-04T12:21:26;1.83;;;1.30;;
14377;SDS011;7272;53.668;9.578;2023-06-04T12:24:28;2.03;;;1.50;;
14377;SDS011;7272;53.668;9.578;2023-06-04T12:27:31;1.65;;;1.50;;
14377;SDS011;7272;53.668;9.578;2023-06-04T12:30:34;2.38;;;1.55;;
14377;SDS011;7272;53.668;9.578;2023-06-04T12:33:36;1.27;;;1.17;;
14377;SDS011;7272;53.668;9.578;2023-06-04T12:36:37;1.60;;;1.50;;
14377;SDS011;7272;53.668;9.578;2023-06-04T12:39:38;2.13;;;1.60;;
14377;SDS011;7272;53.668;9.578;2023-06-04T12:42:40;1.70;;;1.40;;
14377;SDS011;7272;53.668;9.578;2023-06-04T12:45:43;1.60;;;1.30;;
14377;SDS011;7272;53.668;9.578;2023-06-04T12:48:44;1.40;;;1.30;;
14377;SDS011;7272;53.668;9.578;2023-06-04T12:51:46;1.83;;;1.42;;
14377;SDS011;7272;53.668;9.578;2023-06-04T12:54:47;1.47;;;1.37;;
14377;SDS011;7272;53.668;9.578;2023-06-04T12:57:49;1.75;;;1.33;;
14377;SDS011;7272;53.668;9.578;2023-06-04T13:00:50;1.90;;;1.40;;
14377;SDS011;7272;53.668;9.578;2023-06-04T13:03:51;1.92;;;1.50;;
14377;SDS011;7272;53.668;9.578;2023-06-04T13:06:52;1.40;;;1.30;;
14377;SDS011;7272;53.668;9.578;2023-06-04T13:09:58;1.83;;;1.47;;
14377;SDS011;7272;53.668;9.578;2023-06-04T13:13:01;1.90;;;1.40;;
14377;SDS011;7272;53.668;9.578;2023-06-04T13:16:02;2.70;;;1.37;;
14377;SDS011;7272;53.668;9.578;2023-06-04T13:19:05;2.38;;;1.58;;
14377;SDS011;7272;53.668;9.578;2023-06-04T13:22:06;1.87;;;1.47;;
14377;SDS011;7272;53.668;9.578;2023-06-04T13:25:09;1.60;;;1.13;;
14377;SDS011;7272;53.668;9.578;2023-06-04T13:28:11;2.43;;;1.70;;
14377;SDS011;7272;53.668;9.578;2023-06-04T13:31:12;1.85;;;1.60;;
14377;SDS011;7272;53.668;9.578;2023-06-04T13:34:13;2.33;;;1.73;;
14377;SDS011;7272;53.668;9.578;2023-06-04T13:37:15;2.90;;;1.80;;
14377;SDS011;7272;53.668;9.578;2023-06-04T13:40:16;2.13;;;1.60;;
14377;SDS011;7272;53.668;9.578;2023-06-04T13:43:18;1.40;;;1.27;;
14377;SDS011;7272;53.668;9.578;2023-06-04T13:46:19;2.43;;;1.50;;
14377;SDS011;7272;53.668;9.578;2023-06-04T13:49:20;1.67;;;1.58;;
14377;SDS011;7272;53.668;9.578;2023-06-04T13:52:21;2.33;;;1.65;;
14377;SDS011;7272;53.668;9.578;2023-06-04T13:55:22;1.33;;;1.20;;
14377;SDS011;7272;53.668;9.578;2023-06-04T13:58:24;2.33;;;1.50;;
14377;SDS011;7272;53.668;9.578;2023-06-04T14:01:26;3.10;;;1.60;;
14377;SDS011;7272;53.668;9.578;2023-06-04T14:04:27;2.25;;;1.50;;
14377;SDS011;7272;53.668;9.578;2023-06-04T14:07:28;2.47;;;1.50;;
14377;SDS011;7272;53.668;9.578;2023-06-04T14:10:29;1.73;;;1.38;;
14377;SDS011;7272;53.668;9.578;2023-06-04T14:13:31;2.03;;;1.60;;
14377;SDS011;7272;53.668;9.578;2023-06-04T14:16:32;1.90;;;1.30;;
14377;SDS011;7272;53.668;9.578;2023-06-04T14:19:34;2.30;;;1.67;;
14377;SDS011;7272;53.668;9.578;2023-06-04T14:22:35;1.95;;;1.58;;
14377;SDS011;7272;53.668;9.578;2023-06-04T14:25:36;1.97;;;1.30;;
14377;SDS011;7272;53.668;9.578;2023-06-04T14:28:39;1.90;;;1.30;;
14377;SDS011;7272;53.668;9.578;2023-06-04T14:31:40;3.33;;;1.70;;
14377;SDS011;7272;53.668;9.578;2023-06-04T14:34:41;1.33;;;1.20;;
14377;SDS011;7272;53.668;9.578;2023-06-04T14:37:42;1.57;;;1.10;;
14377;SDS011;7272;53.668;9.578;2023-06-04T14:40:43;1.90;;;1.30;;
14377;SDS011;7272;53.668;9.578;2023-06-04T14:43:46;2.03;;;1.40;;
14377;SDS011;7272;53.668;9.578;2023-06-04T14:46:48;1.70;;;1.60;;
14377;SDS011;7272;53.668;9.578;2023-06-04T14:49:50;1.97;;;1.60;;
14377;SDS011;7272;53.668;9.578;2023-06-04T14:52:51;1.87;;;1.50;;
14377;SDS011;7272;53.668;9.578;2023-06-04T14:55:52;1.83;;;1.30;;
14377;SDS011;7272;53.668;9.578;2023-06-04T14:58:54;1.50;;;1.40;;
14377;SDS011;7272;53.668;9.578;2023-06-04T15:01:55;1.77;;;1.53;;
14377;SDS011;7272;53.668;9.578;2023-06-04T15:04:57;2.33;;;1.50;;
14377;SDS011;7272;53.668;9.578;2023-06-04T15:07:58;1.73;;;1.50;;
14377;SDS011;7272;53.668;9.578;2023-06-04T15:10:59;2.97;;;1.90;;
14377;SDS011;7272;53.668;9.578;2023-06-04T15:14:01;2.00;;;1.70;;
14377;SDS011;7272;53.668;9.578;2023-06-04T15:17:02;3.37;;;1.60;;
14377;SDS011;7272;53.668;9.578;2023-06-04T15:20:04;1.98;;;1.50;;
14377;SDS011;7272;53.668;9.578;2023-06-04T15:23:06;2.23;;;1.70;;
14377;SDS011;7272;53.668;9.578;2023-06-04T15:26:07;2.70;;;1.43;;
14377;SDS011;7272;53.668;9.578;2023-06-04T15:29:09;2.87;;;1.47;;
14377;SDS011;7272;53.668;9.578;2023-06-04T15:32:10;2.17;;;1.57;;
14377;SDS011;7272;53.668;9.578;2023-06-04T15:35:11;5.33;;;1.53;;
14377;SDS011;7272;53.668;9.578;2023-06-04T15:38:13;2.85;;;1.83;;
14377;SDS011;7272;53.668;9.578;2023-06-04T15:41:14;1.80;;;1.65;;
14377;SDS011;7272;53.668;9.578;2023-06-04T15:44:16;3.57;;;1.63;;
14377;SDS011;7272;53.668;9.578;2023-06-04T15:47:17;1.57;;;1.47;;
14377;SDS011;7272;53.668;9.578;2023-06-04T15:50:18;1.93;;;1.50;;
14377;SDS011;7272;53.668;9.578;2023-06-04T15:53:19;2.10;;;1.50;;
14377;SDS011;7272;53.668;9.578;2023-06-04T15:56:23;2.13;;;1.77;;
14377;SDS011;7272;53.668;9.578;2023-06-04T15:59:24;3.00;;;1.73;;
14377;SDS011;7272;53.668;9.578;2023-06-04T16:02:25;1.77;;;1.63;;
14377;SDS011;7272;53.668;9.578;2023-06-04T16:05:27;1.70;;;1.43;;
14377;SDS011;7272;53.668;9.578;2023-06-04T16:08:28;1.53;;;1.33;;
14377;SDS011;7272;53.668;9.578;2023-06-04T16:11:29;2.70;;;1.50;;
14377;SDS011;7272;53.668;9.578;2023-06-04T16:14:31;1.95;;;1.63;;
14377;SDS011;7272;53.668;9.578;2023-06-04T16:17:32;2.27;;;1.70;;
14377;SDS011;7272;53.668;9.578;2023-06-04T16:20:33;2.80;;;1.90;;
14377;SDS011;7272;53.668;9.578;2023-06-04T16:23:35;1.83;;;1.60;;
14377;SDS011;7272;53.668;9.578;2023-06-04T16:26:36;2.93;;;1.60;;
14377;SDS011;7272;53.668;9.578;2023-06-04T16:29:37;1.73;;;1.43;;
14377;SDS011;7272;53.668;9.578;2023-06-04T16:32:39;2.83;;;1.70;;
14377;SDS011;7272;53.668;9.578;2023-06-04T16:35:40;3.08;;;2.10;;
14377;SDS011;7272;53.668;9.578;2023-06-04T16:38:41;2.50;;;2.00;;
14377;SDS011;7272;53.668;9.578;2023-06-04T16:41:42;2.40;;;1.70;;
14377;SDS011;7272;53.668;9.578;2023-06-04T16:44:44;2.23;;;1.80;;
14377;SDS011;7272;53.668;9.578;2023-06-04T16:47:46;2.17;;;2.00;;
14377;SDS011;7272;53.668;9.578;2023-06-04T16:50:48;2.57;;;1.60;;
14377;SDS011;7272;53.668;9.578;2023-06-04T16:53:50;2.00;;;1.80;;
14377;SDS011;7272;53.668;9.578;2023-06-04T16:56:51;2.08;;;1.88;;
14377;SDS011;7272;53.668;9.578;2023-06-04T16:59:53;2.87;;;1.80;;
14377;SDS011;7272;53.668;9.578;2023-06-04T17:02:55;2.27;;;1.90;;
14377;SDS011;7272;53.668;9.578;2023-06-04T17:05:56;1.93;;;1.40;;
14377;SDS011;7272;53.668;9.578;2023-06-04T17:08:58;2.73;;;1.60;;
14377;SDS011;7272;53.668;9.578;2023-06-04T17:11:59;2.63;;;1.60;;
14377;SDS011;7272;53.668;9.578;2023-06-04T17:15:01;2.10;;;1.47;;
14377;SDS011;7272;53.668;9.578;2023-06-04T17:18:02;1.88;;;1.70;;
14377;SDS011;7272;53.668;9.578;2023-06-04T17:21:10;2.00;;;1.50;;
14377;SDS011;7272;53.668;9.578;2023-06-04T17:24:11;2.40;;;1.90;;
14377;SDS011;7272;53.668;9.578;2023-06-04T17:27:13;2.50;;;1.90;;
14377;SDS011;7272;53.668;9.578;2023-06-04T17:30:14;1.70;;;1.60;;
14377;SDS011;7272;53.668;9.578;2023-06-04T17:33:16;2.20;;;2.00;;
14377;SDS011;7272;53.668;9.578;2023-06-04T17:36:18;1.80;;;1.70;;
14377;SDS011;7272;53.668;9.578;2023-06-04T17:39:20;5.20;;;1.47;;
14377;SDS011;7272;53.668;9.578;2023-06-04T17:42:21;1.67;;;1.57;;
14377;SDS011;7272;53.668;9.578;2023-06-04T17:45:23;2.50;;;1.80;;
14377;SDS011;7272;53.668;9.578;2023-06-04T17:48:24;2.47;;;2.10;;
14377;SDS011;7272;53.668;9.578;2023-06-04T17:51:25;2.07;;;1.80;;
14377;SDS011;7272;53.668;9.578;2023-06-04T17:54:26;2.07;;;1.90;;
14377;SDS011;7272;53.668;9.578;2023-06-04T17:57:28;2.20;;;2.00;;
14377;SDS011;7272;53.668;9.578;2023-06-04T18:00:30;1.80;;;1.70;;
14377;SDS011;7272;53.668;9.578;2023-06-04T18:03:31;2.10;;;1.90;;
14377;SDS011;7272;53.668;9.578;2023-06-04T18:06:33;2.10;;;1.90;;
14377;SDS011;7272;53.668;9.578;2023-06-04T18:09:34;1.90;;;1.70;;
14377;SDS011;7272;53.668;9.578;2023-06-04T18:12:35;2.28;;;2.08;;
14377;SDS011;7272;53.668;9.578;2023-06-04T18:15:37;1.80;;;1.70;;
14377;SDS011;7272;53.668;9.578;2023-06-04T18:18:38;1.97;;;1.77;;
14377;SDS011;7272;53.668;9.578;2023-06-04T18:21:39;2.87;;;2.00;;
14377;SDS011;7272;53.668;9.578;2023-06-04T18:24:40;2.17;;;1.93;;
14377;SDS011;7272;53.668;9.578;2023-06-04T18:27:41;2.03;;;1.93;;
14377;SDS011;7272;53.668;9.578;2023-06-04T18:30:43;2.07;;;1.90;;
14377;SDS011;7272;53.668;9.578;2023-06-04T18:33:50;2.55;;;2.35;;